Terminal Aerodrome Forecast
Issued by NWS Twin Cities, MN

Home | Current Version | Previous Version | Text Only | Print | Product List | Glossary Off
Versions: 1 2 3 4 5 6 7 8 9 10 11 12 13 14 15 16 17 18

000
FTUS43 KMPX 212300
TAFSTC
TAF
KSTC 212335Z 2200/2224 16011KT P6SM SCT040 SCT350
     FM220600 15005KT 6SM HZ VCTS SCT040CB BKN120
     FM220800 22013KT 6SM BR SCT060 BKN100
     FM221400 31016G23KT P6SM SCT040 SCT250=

USA.gov is the U.S. government's official web portal to all federal, state and local government web resources and services.